Sabana De La Mar, Dominican Republic

10:54 PM AST on August 29, 2015 (GMT -0400)
Marina Puerto Bahia | | Change Station
CLOSE
Current Station
Personal Weather Station
Location: Puerto Bahia, Samana
Elevation: 105 ft
Nearby Weather Stations

Elev 105 ft 19.20 °N, 69.35 °W | Updated 5 seconds ago

Partly Cloudy
Partly Cloudy
86.7 °F
Feels Like 103 °F
N
5.8
Wind Variable Wind from NNE
Gusts 7.4 mph

Today
High -- | Low -- °F
--% Chance of Precip.
Yesterday
High -- | Low -- °F
Precip. -- in
6:21 AM 6:54 PM
Full, 100% visible
Pressure 30.01 in
Visibility 6.2 miles
Clouds Few 1800 ft
Heat Index 103 °F
Dew Point 80 °F
Humidity 81%
Rainfall 0.00 in
Snow Depth Not available.
UV 0.0 out of 12
Pollen Not available.
Air Quality Not available.
Flu Activity Not available.
METAR MDLR 300200Z 06005KT 9999 FEW018 26/23 Q1016
Pressure 30.01 in
Visibility 6.2 miles
Clouds Few 1800 ft
Heat Index 103 °F
Dew Point 80 °F
Humidity 81%
Rainfall 0.00 in
Snow Depth Not available.
UV 0.0 out of 12
Pollen Not available.
Air Quality Not available.
Flu Activity Not available.
METAR MDLR 300200Z 06005KT 9999 FEW018 26/23 Q1016

10-Day Weather Forecast

×

Almanac

Astronomy

Aug. 29, 2015 Rise Set
Actual Time
Civil Twilight
Nautical Twilight
Astronomical Twilight
Moon
Length of Visible Light
Length of Day
Tomorrow will be .
, % of the Moon is Illuminated

Today's Extremes

Country Highs Country Lows

Community

WunderPhotos

Upload Photos

1,850,855 photos uploaded!

WunderBlogs® & News

Nearby

Air Quality

  Air Quality AQ Index Pollutant
Not available.

Snow Depth

Station Depth Elevation

Earthquake Activity

City Distance Mag. Time & Date
Minimum magnitude displayed is 2.5.

Coastal Water Temperatures

Place Temperature

Stations

Nearby Weather Stations

Station Location Temp. Windchill Dew Point Humidity Wind Precip. Elev Updated Type